»·PEaware :: SWA841 KPHX-KSLC

SWA841 :: KPHX-KSLC

FLIGHT INFORMATION

Flight Status: Arrived
Operator:
Southwest Airlines
More flights by this operator :: More flights under this callsign
Pilot: Timothy L. (25392)
Aircraft: BOEING 737-800
(B738)
More flights by this aircraft type
Origin: KPHX Phoenix Sky Harbor Intl
United States
Destination: KSLC Salt Lake City Intl
United States
More flights between these airports :: More routes between these airports
Route: QUAKY1 GCN BCE QWENN5
File this flight plan on PilotEdge
Remarks:
Altitude:
(Current/Filed)
36,000ft
Speed:
(Current/Filed)
459kts
Departed: 31-Jul-20 09:55 AM
Arrived: 31-Jul-20 11:09 AM
Distance/Time
Traveled:
441nm/1:14
Distance/Time
To Go:
Arrived

Flight Plot

Page will automatically refresh every two minutes.


Map Options




Map Legend


Flown Route
Filed Route
Departure Airport
Arrival Airport
Navaid (VOR, NDB)
Fix

Horizontal Profiles

Position Reports

Time Latitude Longitude Heading Altitude Ground
Speed
31-Jul-20 09:18 33.434405 -111.997331 83 1142ft 0kts
31-Jul-20 09:19 33.434405 -111.997331 83 1142ft 0kts
31-Jul-20 09:20 33.434405 -111.997331 83 1142ft 0kts
31-Jul-20 09:21 33.434405 -111.997331 83 1142ft 0kts
31-Jul-20 09:22 33.434405 -111.997331 83 1142ft 0kts
31-Jul-20 09:23 33.434405 -111.997331 83 1142ft 0kts
31-Jul-20 09:24 33.434405 -111.997331 83 1142ft 0kts
31-Jul-20 09:25 33.434405 -111.997331 83 1142ft 0kts
31-Jul-20 09:26 33.434405 -111.997331 83 1142ft 0kts
31-Jul-20 09:27 33.434405 -111.997331 83 1141ft 0kts
31-Jul-20 09:28 33.434405 -111.997331 83 1141ft 0kts
31-Jul-20 09:29 33.434405 -111.997331 83 1141ft 0kts
31-Jul-20 09:30 33.434405 -111.997331 83 1141ft 0kts
31-Jul-20 09:32 33.434405 -111.997331 83 1141ft 0kts
31-Jul-20 09:33 33.434405 -111.997331 83 1141ft 0kts
31-Jul-20 09:34 33.434405 -111.997331 83 1141ft 0kts
31-Jul-20 09:35 33.434405 -111.997331 83 1141ft 0kts
31-Jul-20 09:36 33.434405 -111.997331 83 1141ft 0kts
31-Jul-20 09:37 33.434405 -111.997331 83 1141ft 0kts
31-Jul-20 09:38 33.434405 -111.997335 82 1141ft 0kts
31-Jul-20 09:39 33.434142 -111.997692 11 1141ft 1kts
31-Jul-20 09:40 33.434191 -111.997947 167 1141ft 1kts
31-Jul-20 09:41 33.434203 -111.997950 167 1141ft 0kts
31-Jul-20 09:42 33.433382 -111.997825 178 1141ft 3kts
31-Jul-20 09:43 33.432824 -112.000529 270 1141ft 16kts
31-Jul-20 09:44 33.432873 -112.005317 271 1141ft 13kts
31-Jul-20 09:45 33.432878 -112.010216 269 1141ft 20kts
31-Jul-20 09:46 33.432886 -112.016816 270 1141ft 19kts
31-Jul-20 09:47 33.432884 -112.023034 269 1141ft 16kts
31-Jul-20 09:48 33.432650 -112.026924 191 1141ft 0kts
31-Jul-20 09:49 33.432129 -112.026975 180 1141ft 0kts
31-Jul-20 09:50 33.432129 -112.026975 180 1141ft 0kts
31-Jul-20 09:50 33.432129 -112.026975 180 1141ft 0kts
31-Jul-20 09:52 33.432129 -112.026975 180 1141ft 0kts
31-Jul-20 09:52 33.432129 -112.026975 180 1141ft 0kts
31-Jul-20 09:53 33.431955 -112.026978 180 1141ft 5kts
31-Jul-20 09:55 33.431128 -111.995970 87 1498ft 181kts
31-Jul-20 09:55 33.434014 -111.940783 87 3438ft 233kts
31-Jul-20 09:56 33.446921 -111.854933 41 6655ft 284kts
31-Jul-20 09:57 33.526287 -111.842999 1 9999ft 306kts
31-Jul-20 09:58 33.618784 -111.838622 3 11885ft 359kts
31-Jul-20 09:59 33.725705 -111.853156 349 13760ft 402kts
31-Jul-20 10:00 33.838097 -111.878443 349 16114ft 419kts
31-Jul-20 10:01 33.954744 -111.904103 349 18161ft 436kts
31-Jul-20 10:02 34.074527 -111.930366 350 20275ft 442kts
31-Jul-20 10:03 34.197214 -111.944751 354 22178ft 449kts
31-Jul-20 10:04 34.322163 -111.958073 353 23924ft 455kts
31-Jul-20 10:05 34.448724 -111.973458 353 25509ft 461kts
31-Jul-20 10:06 34.577108 -111.988756 353 27035ft 466kts
31-Jul-20 10:07 34.706147 -112.003409 353 28726ft 465kts
31-Jul-20 10:08 34.833038 -112.017681 352 30726ft 456kts
31-Jul-20 10:09 34.957815 -112.031775 352 32627ft 446kts
31-Jul-20 10:10 35.079924 -112.045566 351 34379ft 437kts
31-Jul-20 10:11 35.199145 -112.059079 351 35921ft 430kts
31-Jul-20 10:12 35.318410 -112.072642 351 36394ft 436kts
31-Jul-20 10:13 35.438732 -112.085401 352 36390ft 431kts
31-Jul-20 10:14 35.558368 -112.097499 351 36384ft 432kts
31-Jul-20 10:15 35.677664 -112.111917 351 36384ft 431kts
31-Jul-20 10:16 35.796523 -112.126249 351 36384ft 431kts
31-Jul-20 10:17 35.915738 -112.140608 351 36363ft 430kts
31-Jul-20 10:18 36.034783 -112.153025 352 36329ft 431kts
31-Jul-20 10:19 36.152439 -112.163313 352 36329ft 431kts
31-Jul-20 10:20 36.272604 -112.174026 352 36329ft 431kts
31-Jul-20 10:21 36.391846 -112.184741 352 36329ft 431kts
31-Jul-20 10:22 36.511494 -112.195538 352 36325ft 432kts
31-Jul-20 10:23 36.631319 -112.206386 352 36298ft 431kts
31-Jul-20 10:24 36.750624 -112.217221 352 36293ft 431kts
31-Jul-20 10:25 36.870121 -112.228109 352 36292ft 432kts
31-Jul-20 10:26 36.989713 -112.239034 352 36293ft 431kts
31-Jul-20 10:27 37.107665 -112.249850 352 36292ft 430kts
31-Jul-20 10:28 37.227227 -112.260850 351 36398ft 430kts
31-Jul-20 10:29 37.346316 -112.271835 351 36475ft 430kts
31-Jul-20 10:30 37.465296 -112.282841 351 36475ft 428kts
31-Jul-20 10:31 37.584138 -112.293876 351 36475ft 429kts
31-Jul-20 10:32 37.702732 -112.305033 350 36475ft 427kts
31-Jul-20 10:33 37.820660 -112.319720 350 36462ft 427kts
31-Jul-20 10:34 37.938565 -112.334369 350 36430ft 426kts
31-Jul-20 10:35 38.056226 -112.348899 350 36429ft 426kts
31-Jul-20 10:36 38.173430 -112.363385 350 36429ft 428kts
31-Jul-20 10:37 38.291109 -112.377967 350 36388ft 427kts
31-Jul-20 10:38 38.409447 -112.392671 350 36280ft 428kts
31-Jul-20 10:39 38.527600 -112.407399 350 36274ft 428kts
31-Jul-20 10:40 38.646303 -112.422254 350 36274ft 430kts
31-Jul-20 10:41 38.764885 -112.437140 350 36274ft 430kts
31-Jul-20 10:42 38.883789 -112.452213 350 36274ft 430kts
31-Jul-20 10:43 39.002988 -112.467366 350 36243ft 431kts
31-Jul-20 10:44 39.118929 -112.482070 350 36229ft 425kts
31-Jul-20 10:45 39.234444 -112.496090 353 36079ft 424kts
31-Jul-20 10:46 39.354191 -112.481779 6 32330ft 448kts
31-Jul-20 10:47 39.474893 -112.446638 10 29947ft 442kts
31-Jul-20 10:48 39.593600 -112.408487 11 27565ft 433kts
31-Jul-20 10:49 39.708164 -112.370652 12 24971ft 420kts
31-Jul-20 10:50 39.819785 -112.333414 12 22419ft 409kts
31-Jul-20 10:51 39.928423 -112.296996 13 19971ft 414kts
31-Jul-20 10:52 40.044978 -112.257726 14 17171ft 428kts
31-Jul-20 10:53 40.158262 -112.219120 14 17034ft 426kts
31-Jul-20 10:54 40.270850 -112.180845 13 14804ft 412kts
31-Jul-20 10:55 40.378893 -112.144010 13 13977ft 409kts
31-Jul-20 10:56 40.486920 -112.107103 13 13030ft 390kts
31-Jul-20 10:57 40.593759 -112.080725 1 11924ft 388kts
31-Jul-20 10:58 40.700951 -112.085839 354 10976ft 390kts
31-Jul-20 10:59 40.799301 -112.097519 354 10980ft 318kts
31-Jul-20 11:00 40.876815 -112.106439 354 10437ft 256kts
31-Jul-20 11:01 40.945958 -112.115223 354 8297ft 244kts
31-Jul-20 11:02 40.993886 -112.088350 81 7798ft 207kts
31-Jul-20 11:03 40.991458 -112.014670 137 7269ft 207kts
31-Jul-20 11:04 40.938384 -111.992163 175 6838ft 204kts
31-Jul-20 11:05 40.883881 -111.985670 174 5720ft 178kts
31-Jul-20 11:06 40.839397 -111.980630 174 4881ft 156kts
31-Jul-20 11:07 40.797765 -111.975807 174 4238ft 119kts
31-Jul-20 11:08 40.789960 -111.976824 237 4237ft 4kts
31-Jul-20 11:09 40.789243 -111.978349 188 4237ft 0kts
31-Jul-20 11:10 40.789243 -111.978349 188 4237ft 0kts

Navigation Log

Ident Type
Flight plan parsing failed, navigation log unavailable